This is the latest recevied weather packets stored in our database for station/object DO1SC. If no packets are shown the sender has not sent any weather packets the latest 10 day(s).
| Time | Temp. | Humidity | Pressure | Rain* | Wind** | Luminosity | Snow |
|---|---|---|---|---|---|---|---|
| 1777689330 | 8.89° C | 63% | 1025.5 hPa | - | - | 0 W/m² | - |
| 1777688721 | 8.89° C | 64% | 1025.5 hPa | - | - | 0 W/m² | - |
| 1777688133 | 8.89° C | 65% | 1025.5 hPa | - | - | 0 W/m² | - |
| 1777687525 | 8.89° C | 65% | 1025.5 hPa | - | - | 0 W/m² | - |
| 1777674317 | 10° C | 69% | 1026.8 hPa | - | - | 0 W/m² | - |
| 1777673120 | 10.56° C | 67% | 1026.8 hPa | - | - | 0 W/m² | - |
| 1777671924 | 11.11° C | 65% | 1026.9 hPa | - | - | 0 W/m² | - |
| 1777671334 | 11.11° C | 63% | 1026.9 hPa | - | - | 0 W/m² | - |
| 1777670117 | 11.67° C | 62% | 1027 hPa | - | - | 0 W/m² | - |
| 1777669532 | 11.67° C | 62% | 1026.9 hPa | - | - | 0 W/m² | - |
| 1777668920 | 12.22° C | 60% | 1027 hPa | - | - | 0 W/m² | - |
| 1777667722 | 12.78° C | 59% | 1027.1 hPa | - | - | 0 W/m² | - |
| 1777664132 | 13.33° C | 56% | 1026.9 hPa | - | - | 0 W/m² | - |
| 1777662935 | 13.89° C | 55% | 1027 hPa | - | - | 0 W/m² | - |
| 1777662327 | 14.44° C | 53% | 1026.9 hPa | - | - | 0 W/m² | - |
| 1777661718 | 14.44° C | 52% | 1026.9 hPa | - | - | 0 W/m² | - |
| 1777661133 | 15° C | 51% | 1026.8 hPa | - | - | 1 W/m² | - |
| 1777660520 | 15.56° C | 50% | 1026.9 hPa | - | - | 3 W/m² | - |
| 1777659932 | 16.11° C | 48% | 1026.8 hPa | - | - | 6 W/m² | - |
| 1777659323 | 16.11° C | 46% | 1026.8 hPa | - | - | 9 W/m² | - |
| 1777656930 | 18.33° C | 42% | 1026.6 hPa | - | - | 22 W/m² | - |
| 1777654536 | 19.44° C | 35% | 1026.7 hPa | - | - | 58 W/m² | - |
| 1777653930 | 19.44° C | 37% | 1026.9 hPa | - | - | 65 W/m² | - |
| 1777653319 | 19.44° C | 36% | 1026.9 hPa | - | - | 75 W/m² | - |
| 1777652729 | 19.44° C | 36% | 1027.1 hPa | - | - | 87 W/m² | - |
* Rain since midnight (hover to see other rain measurements)
** Current wind speed in m/s (hover to see current wind gust speed)